createdAt,value
2017-07-16T00:00:51.228Z,8.67
2017-07-16T00:03:18.729Z,9.27
2017-07-16T00:05:46.154Z,8.80
2017-07-16T00:08:13.590Z,9.50
2017-07-16T00:10:41.025Z,8.60
2017-07-16T00:13:08.441Z,10.57
2017-07-16T00:15:35.854Z,9.33
2017-07-16T00:18:03.973Z,9.07
2017-07-16T00:20:31.421Z,9.27
2017-07-16T00:22:58.821Z,8.77
2017-07-16T00:25:26.366Z,9.57
2017-07-16T00:27:53.762Z,9.83
2017-07-16T00:30:21.235Z,9.77
2017-07-16T00:32:48.819Z,10.30
2017-07-16T00:35:16.293Z,9.27
2017-07-16T00:37:43.690Z,10.17
2017-07-16T00:40:11.342Z,9.07
2017-07-16T00:42:38.814Z,9.17
2017-07-16T00:45:06.395Z,9.40
2017-07-16T00:47:33.843Z,9.40
2017-07-16T00:50:01.252Z,8.33
2017-07-16T00:52:28.944Z,9.60
2017-07-16T00:54:56.463Z,8.33
2017-07-16T00:57:24.823Z,8.60
2017-07-16T00:59:52.219Z,8.87
2017-07-16T01:02:19.662Z,8.50
2017-07-16T01:04:47.066Z,7.93
2017-07-16T01:07:14.521Z,8.07
2017-07-16T01:09:41.995Z,8.87
2017-07-16T01:12:09.423Z,9.00
2017-07-16T01:14:36.880Z,8.13
2017-07-16T01:17:04.305Z,10.80
2017-07-16T01:19:31.821Z,9.47
2017-07-16T01:21:59.223Z,9.17
2017-07-16T01:24:26.677Z,9.47
2017-07-16T01:26:54.181Z,9.00
2017-07-16T01:29:21.640Z,8.90
2017-07-16T01:31:49.090Z,9.90
2017-07-16T01:34:16.553Z,8.90
2017-07-16T01:36:44.012Z,8.40
2017-07-16T01:39:11.489Z,9.47
2017-07-16T01:41:38.952Z,8.63
2017-07-16T01:44:06.386Z,8.30
2017-07-16T01:46:33.863Z,9.10
2017-07-16T01:49:01.281Z,9.00
2017-07-16T01:51:28.718Z,8.60
2017-07-16T01:53:56.192Z,7.90
2017-07-16T01:56:23.686Z,8.80
2017-07-16T01:58:51.150Z,8.57
2017-07-16T02:01:18.585Z,7.87
2017-07-16T02:03:45.989Z,8.03
2017-07-16T02:06:13.423Z,8.60
2017-07-16T02:08:40.870Z,8.10
2017-07-16T02:11:08.378Z,7.57
2017-07-16T02:13:35.842Z,7.77
2017-07-16T02:16:03.265Z,7.53
2017-07-16T02:18:30.698Z,7.60
2017-07-16T02:20:58.221Z,7.63
2017-07-16T02:23:25.694Z,7.63
2017-07-16T02:25:53.175Z,6.83
2017-07-16T02:28:20.607Z,7.20
2017-07-16T02:30:48.087Z,6.40
2017-07-16T02:33:15.520Z,6.70
2017-07-16T02:35:42.937Z,6.90
2017-07-16T02:38:10.471Z,6.80
2017-07-16T02:40:37.898Z,7.33
2017-07-16T02:43:05.298Z,6.90
2017-07-16T02:45:32.750Z,6.90
2017-07-16T02:48:00.198Z,6.50
2017-07-16T02:50:27.658Z,6.70
2017-07-16T02:52:55.167Z,6.43
2017-07-16T02:55:22.562Z,6.00
2017-07-16T02:57:49.968Z,6.57
2017-07-16T03:00:17.403Z,5.83
2017-07-16T03:02:44.849Z,5.97
2017-07-16T03:05:12.246Z,5.57
2017-07-16T03:07:39.770Z,5.90
2017-07-16T03:10:07.249Z,6.10
2017-07-16T03:12:34.652Z,6.00
2017-07-16T03:15:02.264Z,5.40
2017-07-16T03:17:29.673Z,6.10
2017-07-16T03:19:57.140Z,6.50
2017-07-16T03:22:24.601Z,6.50
2017-07-16T03:24:58.032Z,6.40
2017-07-16T03:27:25.477Z,7.03
2017-07-16T03:29:52.947Z,5.70
2017-07-16T03:32:20.371Z,6.07
2017-07-16T03:34:47.834Z,6.40
2017-07-16T03:37:15.319Z,5.77
2017-07-16T03:39:42.792Z,6.77
2017-07-16T03:42:10.233Z,5.70
2017-07-16T03:44:37.938Z,5.40
2017-07-16T03:47:05.338Z,6.40
2017-07-16T03:49:32.861Z,6.70
2017-07-16T03:52:00.286Z,7.40
2017-07-16T03:54:27.881Z,6.60
2017-07-16T03:56:55.593Z,6.73
2017-07-16T03:59:23.052Z,6.40
2017-07-16T04:01:50.478Z,7.37
2017-07-16T04:04:18.368Z,6.20
2017-07-16T04:06:45.835Z,6.03
2017-07-16T04:09:13.303Z,6.50
2017-07-16T04:11:40.736Z,6.07
2017-07-16T04:14:08.208Z,6.40
2017-07-16T04:16:35.680Z,5.30
2017-07-16T04:19:03.149Z,5.80
2017-07-16T04:21:30.551Z,7.30
2017-07-16T04:23:58.003Z,6.47
2017-07-16T04:26:25.469Z,6.33
2017-07-16T04:28:52.881Z,6.13
2017-07-16T04:31:20.355Z,7.00
2017-07-16T04:33:47.820Z,5.97
2017-07-16T04:36:15.929Z,6.30
2017-07-16T04:38:43.319Z,6.93
2017-07-16T04:41:10.760Z,6.50
2017-07-16T04:43:38.276Z,6.17
2017-07-16T04:46:05.725Z,6.33
2017-07-16T04:48:33.289Z,6.47
2017-07-16T04:51:00.768Z,6.83
2017-07-16T04:53:28.162Z,6.07
2017-07-16T04:55:55.601Z,6.40
2017-07-16T04:58:23.001Z,6.00
2017-07-16T05:00:50.420Z,6.90
2017-07-16T05:03:17.940Z,6.40
2017-07-16T05:05:45.394Z,8.73
2017-07-16T05:08:13.564Z,6.23
2017-07-16T05:10:41.017Z,7.23
2017-07-16T05:13:08.422Z,7.30
2017-07-16T05:15:35.816Z,8.10
2017-07-16T05:18:03.300Z,7.00
2017-07-16T05:20:30.688Z,7.10
2017-07-16T05:22:59.065Z,7.53
2017-07-16T05:25:26.557Z,6.67
2017-07-16T05:27:53.950Z,6.87
2017-07-16T05:30:21.486Z,6.53
2017-07-16T05:32:49.047Z,8.30
2017-07-16T05:35:16.508Z,8.90
2017-07-16T05:37:43.914Z,9.70
2017-07-16T05:40:11.393Z,9.60
2017-07-16T05:42:38.919Z,17.60
2017-07-16T05:45:06.406Z,14.80
2017-07-16T05:47:34.194Z,9.10
2017-07-16T05:50:01.687Z,8.50
2017-07-16T05:52:29.103Z,7.73
2017-07-16T05:54:56.582Z,10.43
2017-07-16T05:57:24.056Z,8.20
2017-07-16T05:59:51.573Z,8.40
2017-07-16T06:02:19.004Z,9.07
2017-07-16T06:04:46.443Z,9.13
2017-07-16T06:07:13.904Z,8.80
2017-07-16T06:09:41.358Z,9.83
2017-07-16T06:12:08.854Z,9.47
2017-07-16T06:14:36.268Z,8.80
2017-07-16T06:17:03.878Z,9.33
2017-07-16T06:19:31.274Z,9.17
2017-07-16T06:21:58.707Z,8.73
2017-07-16T06:24:26.208Z,7.70
2017-07-16T06:26:53.631Z,8.20
2017-07-16T06:29:21.049Z,7.90
2017-07-16T06:31:48.550Z,8.50
2017-07-16T06:36:23.423Z,11.23
2017-07-16T06:38:51.844Z,10.83
2017-07-16T06:41:20.211Z,11.33
2017-07-16T06:43:48.617Z,8.60
2017-07-16T06:46:17.019Z,7.23
2017-07-16T06:48:45.445Z,7.90
2017-07-16T06:51:13.839Z,9.37
2017-07-16T06:53:42.252Z,9.10
2017-07-16T06:56:10.603Z,7.30
2017-07-16T06:58:39.015Z,8.33
2017-07-16T07:01:07.390Z,8.00
2017-07-16T07:03:35.726Z,8.77
2017-07-16T07:06:04.202Z,9.07
2017-07-16T07:08:32.581Z,10.23
2017-07-16T07:11:00.286Z,9.60
2017-07-16T07:13:27.752Z,9.57
2017-07-16T07:15:55.227Z,9.90
2017-07-16T07:18:22.661Z,9.03
2017-07-16T07:20:50.065Z,7.77
2017-07-16T07:23:17.539Z,8.93
2017-07-16T07:25:44.962Z,7.67
2017-07-16T07:28:13.401Z,9.20
2017-07-16T07:30:40.831Z,9.13
2017-07-16T07:33:08.245Z,11.93
2017-07-16T07:35:35.831Z,8.40
2017-07-16T07:38:03.330Z,7.67
2017-07-16T07:40:30.769Z,8.47
2017-07-16T07:42:58.240Z,8.30
2017-07-16T07:45:25.698Z,8.07
2017-07-16T07:47:53.129Z,7.90
2017-07-16T07:50:20.562Z,7.63
2017-07-16T07:52:48.047Z,7.90
2017-07-16T07:55:15.433Z,7.70
2017-07-16T07:57:43.023Z,8.87
2017-07-16T08:00:10.600Z,7.90
2017-07-16T08:02:37.997Z,8.67
2017-07-16T08:05:05.448Z,8.30
2017-07-16T08:07:33.822Z,8.63
2017-07-16T08:10:01.241Z,8.43
2017-07-16T08:12:28.670Z,7.90
2017-07-16T08:14:56.114Z,9.50
2017-07-16T08:17:23.560Z,8.83
2017-07-16T08:19:50.997Z,10.23
2017-07-16T08:22:18.438Z,9.00
2017-07-16T08:24:47.431Z,8.83
2017-07-16T08:27:14.928Z,8.83
2017-07-16T08:29:42.467Z,9.57
2017-07-16T08:32:09.904Z,9.93
2017-07-16T08:34:37.447Z,9.27
2017-07-16T08:37:04.898Z,9.47
2017-07-16T08:39:32.290Z,8.87
2017-07-16T08:41:59.718Z,9.13
2017-07-16T08:44:27.175Z,9.20
2017-07-16T08:46:54.579Z,9.67
2017-07-16T08:49:22.055Z,9.00
2017-07-16T08:51:49.622Z,12.07
2017-07-16T08:54:17.358Z,9.40
2017-07-16T08:56:44.840Z,10.57
2017-07-16T08:59:12.304Z,9.50
2017-07-16T09:01:39.697Z,12.47
2017-07-16T09:04:07.122Z,9.00
2017-07-16T09:06:34.594Z,9.93
2017-07-16T09:09:01.999Z,9.30
2017-07-16T09:11:29.418Z,11.10
2017-07-16T09:13:56.949Z,9.10
2017-07-16T09:16:24.350Z,10.70
2017-07-16T09:18:51.825Z,10.00
2017-07-16T09:21:19.355Z,9.53
2017-07-16T09:23:51.606Z,9.47
2017-07-16T09:26:20.034Z,12.80
2017-07-16T09:28:47.485Z,11.77
2017-07-16T09:31:14.888Z,10.60
2017-07-16T09:33:42.338Z,10.93
2017-07-16T09:36:09.815Z,11.80
2017-07-16T09:38:37.236Z,12.30
2017-07-16T09:41:04.685Z,12.47
2017-07-16T09:43:32.164Z,13.77
2017-07-16T09:45:59.582Z,11.13
2017-07-16T09:48:27.147Z,11.67
2017-07-16T09:50:55.384Z,12.90
2017-07-16T09:53:22.855Z,12.30
2017-07-16T09:55:50.333Z,13.67
2017-07-16T09:58:17.818Z,13.13
2017-07-16T10:00:45.243Z,11.27
2017-07-16T10:03:12.796Z,10.80
2017-07-16T10:05:40.205Z,10.60
2017-07-16T10:08:07.644Z,11.67
2017-07-16T10:10:36.038Z,12.37
2017-07-16T10:13:09.307Z,10.77
2017-07-16T10:15:36.873Z,11.90
2017-07-16T10:18:04.291Z,12.53
2017-07-16T10:20:31.694Z,12.17
2017-07-16T10:22:59.197Z,11.50
2017-07-16T10:25:26.683Z,11.83
2017-07-16T10:27:54.199Z,12.20
2017-07-16T10:30:21.638Z,9.17
2017-07-16T10:32:49.047Z,10.57
2017-07-16T10:35:16.496Z,9.47
2017-07-16T10:37:43.981Z,11.93
2017-07-16T10:40:12.397Z,10.03
2017-07-16T10:42:39.801Z,8.73
2017-07-16T10:45:07.345Z,9.53
2017-07-16T10:47:34.816Z,9.50
2017-07-16T10:50:02.282Z,10.10
2017-07-16T10:52:29.733Z,9.60
2017-07-16T10:54:57.151Z,11.03
2017-07-16T10:57:24.592Z,9.80
2017-07-16T10:59:52.101Z,10.17
2017-07-16T11:02:19.512Z,10.60
2017-07-16T11:04:46.924Z,9.53
2017-07-16T11:07:14.370Z,9.70
2017-07-16T11:09:41.782Z,8.30
2017-07-16T11:12:09.231Z,9.20
2017-07-16T11:14:36.741Z,9.73
2017-07-16T11:17:04.195Z,10.90
2017-07-16T11:19:31.602Z,12.80
2017-07-16T11:21:59.233Z,12.10
2017-07-16T11:24:26.665Z,12.00
2017-07-16T11:26:54.165Z,12.43
2017-07-16T11:29:21.622Z,12.70
2017-07-16T11:31:49.104Z,12.03
2017-07-16T11:34:16.582Z,10.13
2017-07-16T11:36:44.051Z,9.87
2017-07-16T11:39:11.501Z,9.67
2017-07-16T11:41:38.909Z,11.20
2017-07-16T11:44:06.391Z,10.70
2017-07-16T11:46:33.859Z,11.30
2017-07-16T11:49:01.354Z,11.10
2017-07-16T11:51:28.879Z,11.67
2017-07-16T11:53:56.289Z,10.43
2017-07-16T11:56:23.705Z,10.40
2017-07-16T11:58:51.165Z,9.70
2017-07-16T12:01:18.571Z,8.77
2017-07-16T12:03:46.029Z,8.40
2017-07-16T12:06:13.460Z,8.83
2017-07-16T12:08:40.858Z,8.57
2017-07-16T12:11:08.273Z,9.27
2017-07-16T12:13:35.706Z,9.20
2017-07-16T12:16:03.133Z,9.97
2017-07-16T12:18:30.598Z,11.23
2017-07-16T12:20:58.128Z,8.60
2017-07-16T12:23:25.547Z,7.30
2017-07-16T12:25:53.038Z,6.03
2017-07-16T12:28:20.499Z,7.40
2017-07-16T12:30:47.903Z,7.30
2017-07-16T12:33:15.366Z,7.30
2017-07-16T12:35:42.882Z,7.70
2017-07-16T12:38:10.279Z,7.50
2017-07-16T12:40:37.684Z,6.80
2017-07-16T12:43:05.171Z,8.70
2017-07-16T12:45:32.599Z,7.47
2017-07-16T12:48:00.054Z,6.70
2017-07-16T12:50:27.494Z,6.50
2017-07-16T12:52:54.908Z,7.53
2017-07-16T12:55:22.367Z,7.00
2017-07-16T12:57:49.855Z,7.13
2017-07-16T13:00:17.250Z,7.63
2017-07-16T13:02:44.692Z,7.10
2017-07-16T13:05:12.159Z,8.00
2017-07-16T13:07:39.633Z,7.70
2017-07-16T13:10:07.092Z,7.90
2017-07-16T13:12:34.588Z,7.40
2017-07-16T13:15:01.982Z,8.40
2017-07-16T13:17:29.438Z,7.77
2017-07-16T13:19:56.934Z,7.60
2017-07-16T13:22:24.398Z,11.00
2017-07-16T13:24:51.793Z,8.53
2017-07-16T13:27:19.264Z,7.83
2017-07-16T13:29:46.669Z,7.80
2017-07-16T13:32:14.223Z,8.43
2017-07-16T13:34:41.654Z,9.40
2017-07-16T13:37:09.111Z,9.03
2017-07-16T13:39:36.530Z,8.83
2017-07-16T13:42:04.039Z,8.93
2017-07-16T13:44:31.479Z,9.40
2017-07-16T13:46:58.949Z,10.03
2017-07-16T13:49:26.472Z,9.53
2017-07-16T13:51:53.890Z,9.70
2017-07-16T13:54:21.425Z,10.97
2017-07-16T13:56:48.957Z,10.13
2017-07-16T13:59:16.447Z,10.40
2017-07-16T14:01:43.872Z,11.17
2017-07-16T14:04:11.431Z,10.10
2017-07-16T14:06:38.920Z,9.67
2017-07-16T14:09:06.393Z,10.23
2017-07-16T14:11:33.862Z,9.40
2017-07-16T14:14:01.277Z,9.73
2017-07-16T14:16:29.698Z,9.27
2017-07-16T14:18:57.170Z,9.00
2017-07-16T14:21:24.586Z,9.10
2017-07-16T14:23:52.029Z,9.00
2017-07-16T14:26:19.480Z,9.10
2017-07-16T14:28:46.991Z,8.30
2017-07-16T14:31:14.443Z,8.33
2017-07-16T14:33:41.883Z,8.50
2017-07-16T14:36:09.347Z,8.47
2017-07-16T14:38:36.750Z,8.27
2017-07-16T14:41:04.209Z,7.87
2017-07-16T14:43:31.675Z,8.33
2017-07-16T14:45:59.106Z,8.07
2017-07-16T14:48:26.570Z,8.07
2017-07-16T14:50:53.984Z,8.17
2017-07-16T14:53:21.399Z,8.27
2017-07-16T14:55:48.999Z,7.70
2017-07-16T14:58:16.531Z,10.40
2017-07-16T15:00:43.973Z,11.67
2017-07-16T15:03:11.652Z,9.67
2017-07-16T15:05:39.095Z,9.97
2017-07-16T15:08:06.600Z,9.23
2017-07-16T15:10:34.036Z,7.97
2017-07-16T15:13:02.017Z,7.33
2017-07-16T15:15:29.440Z,7.60
2017-07-16T15:17:56.954Z,8.73
2017-07-16T15:20:24.374Z,9.20
2017-07-16T15:22:51.838Z,8.50
2017-07-16T15:25:19.335Z,8.20
2017-07-16T15:27:46.768Z,8.27
2017-07-16T15:30:14.178Z,8.37
2017-07-16T15:32:41.685Z,9.03
2017-07-16T15:35:10.112Z,8.77
2017-07-16T15:37:37.530Z,8.03
2017-07-16T15:40:05.022Z,9.10
2017-07-16T15:42:32.479Z,8.30
2017-07-16T15:44:59.985Z,7.43
2017-07-16T15:47:27.428Z,7.40
2017-07-16T15:49:54.843Z,60.97
2017-07-16T15:52:22.272Z,118.30
2017-07-16T15:54:49.864Z,500.60
2017-07-16T15:57:17.362Z,479.50
2017-07-16T15:59:44.829Z,501.53
2017-07-16T16:04:46.122Z,38.93
2017-07-16T16:07:13.705Z,15.47
2017-07-16T16:09:41.142Z,12.00
2017-07-16T16:12:08.721Z,11.67
2017-07-16T16:14:36.280Z,9.90
2017-07-16T16:17:03.686Z,11.70
2017-07-16T16:19:31.132Z,8.90
2017-07-16T16:21:58.598Z,10.07
2017-07-16T16:24:26.020Z,10.97
2017-07-16T16:26:53.562Z,10.30
2017-07-16T16:29:21.083Z,9.20
2017-07-16T16:31:48.595Z,8.20
2017-07-16T16:34:16.003Z,8.77
2017-07-16T16:36:43.548Z,9.03
2017-07-16T16:39:10.955Z,8.80
2017-07-16T16:41:38.460Z,9.57
2017-07-16T16:44:05.938Z,142.20
2017-07-16T16:46:33.406Z,230.03
2017-07-16T16:49:00.824Z,151.63
2017-07-16T16:51:28.309Z,160.13
2017-07-16T16:53:55.761Z,169.93
2017-07-16T16:56:23.348Z,199.57
2017-07-16T16:58:50.829Z,205.43
2017-07-16T17:01:18.324Z,163.30
2017-07-16T17:03:45.741Z,25.50
2017-07-16T17:06:13.258Z,10.30
2017-07-16T17:08:40.771Z,9.67
2017-07-16T17:11:08.205Z,8.47
2017-07-16T17:13:35.723Z,55.47
2017-07-16T17:16:03.315Z,60.10
2017-07-16T17:18:31.253Z,52.97
2017-07-16T17:20:58.744Z,44.60
2017-07-16T17:23:28.038Z,32.77
2017-07-16T17:25:55.486Z,43.27
2017-07-16T17:28:23.023Z,37.43
2017-07-16T17:30:50.439Z,10.30
2017-07-16T17:33:17.938Z,9.07
2017-07-16T17:35:45.404Z,9.17
2017-07-16T17:38:12.821Z,7.87
2017-07-16T17:40:40.274Z,8.97
2017-07-16T17:43:08.010Z,8.00
2017-07-16T17:45:35.657Z,8.03
2017-07-16T17:48:03.115Z,6.27
2017-07-16T17:50:30.587Z,8.17
2017-07-16T17:52:57.999Z,5.30
2017-07-16T17:55:25.485Z,5.37
2017-07-16T17:57:52.918Z,5.90
2017-07-16T18:00:20.354Z,6.40
2017-07-16T18:02:47.865Z,5.80
2017-07-16T18:05:15.478Z,4.57
2017-07-16T18:07:42.963Z,5.50
2017-07-16T18:10:10.404Z,6.17
2017-07-16T18:12:37.939Z,4.73
2017-07-16T18:15:05.372Z,5.33
2017-07-16T18:17:33.193Z,5.50
2017-07-16T18:20:00.642Z,6.63
2017-07-16T18:22:28.119Z,6.10
2017-07-16T18:24:55.780Z,5.27
2017-07-16T18:27:23.243Z,5.43
2017-07-16T18:29:50.709Z,6.87
2017-07-16T18:32:18.113Z,7.17
2017-07-16T18:34:45.567Z,6.47
2017-07-16T18:37:13.021Z,4.73
2017-07-16T18:39:40.470Z,3.77
2017-07-16T18:42:07.978Z,4.60
2017-07-16T18:44:35.442Z,5.13
2017-07-16T18:47:02.851Z,4.70
2017-07-16T18:49:30.403Z,4.20
2017-07-16T18:51:57.881Z,4.83
2017-07-16T18:54:25.299Z,4.00
2017-07-16T18:56:52.837Z,3.93
2017-07-16T18:59:20.268Z,5.50
2017-07-16T19:01:47.731Z,5.33
2017-07-16T19:04:15.251Z,5.03
2017-07-16T19:06:42.739Z,4.77
2017-07-16T19:09:10.219Z,4.60
2017-07-16T19:11:37.682Z,5.00
2017-07-16T19:14:05.153Z,4.67
2017-07-16T19:16:32.563Z,4.77
2017-07-16T19:19:00.043Z,4.50
2017-07-16T19:21:27.458Z,5.07
2017-07-16T20:03:46.409Z,7.03
2017-07-16T20:06:14.913Z,6.73
2017-07-16T20:09:34.157Z,8.17
2017-07-16T20:12:02.573Z,7.80
2017-07-16T20:14:31.179Z,7.57
2017-07-16T20:17:00.075Z,7.13
2017-07-16T20:19:28.594Z,6.93
2017-07-16T20:21:57.041Z,7.30
2017-07-16T20:24:25.519Z,8.77
2017-07-16T20:26:53.973Z,7.10
2017-07-16T20:29:22.389Z,7.50
2017-07-16T20:31:50.875Z,8.33
2017-07-16T20:34:19.331Z,10.63
2017-07-16T20:36:46.783Z,9.30
2017-07-16T20:39:14.378Z,7.43
2017-07-16T20:41:42.023Z,9.80
2017-07-16T20:44:09.507Z,9.00
2017-07-16T20:46:37.062Z,9.60
2017-07-16T20:49:04.645Z,10.23
2017-07-16T20:51:32.095Z,9.60
2017-07-16T20:54:00.576Z,8.40
2017-07-16T20:56:28.047Z,8.00
2017-07-16T20:58:55.504Z,7.57
2017-07-16T21:01:23.035Z,6.93
2017-07-16T21:03:50.625Z,7.70
2017-07-16T21:06:18.281Z,6.10
2017-07-16T21:08:45.865Z,5.87
2017-07-16T21:11:13.307Z,5.70
2017-07-16T21:13:40.773Z,5.83
2017-07-16T21:16:08.316Z,5.27
2017-07-16T21:18:35.775Z,5.00
2017-07-16T21:21:03.324Z,5.67
2017-07-16T21:23:30.810Z,6.00
2017-07-16T21:25:58.371Z,5.77
2017-07-16T21:28:25.862Z,5.20
2017-07-16T21:30:53.461Z,5.40
2017-07-16T21:33:20.992Z,5.47
2017-07-16T21:35:48.473Z,5.60
2017-07-16T21:38:15.999Z,5.77
2017-07-16T21:40:43.546Z,5.40
2017-07-16T21:43:11.775Z,5.50
2017-07-16T21:45:39.260Z,6.97
2017-07-16T21:48:06.687Z,5.40
2017-07-16T21:50:34.236Z,4.90
2017-07-16T21:53:01.710Z,4.47
2017-07-16T21:55:29.152Z,4.20
2017-07-16T21:57:56.623Z,4.57
2017-07-16T22:00:24.141Z,4.17
2017-07-16T22:02:51.645Z,3.77
2017-07-16T22:05:19.189Z,3.93
2017-07-16T22:07:46.980Z,3.60
2017-07-16T22:10:14.427Z,3.40
2017-07-16T22:12:42.071Z,3.20
2017-07-16T22:15:09.540Z,2.70
2017-07-16T22:17:36.983Z,3.20
2017-07-16T22:20:04.422Z,3.20
2017-07-16T22:22:31.969Z,3.30
2017-07-16T22:24:59.551Z,3.20
2017-07-16T22:27:26.997Z,2.97
2017-07-16T22:29:54.484Z,3.00
2017-07-16T22:32:21.940Z,3.20
2017-07-16T22:34:49.392Z,3.20
2017-07-16T22:37:16.881Z,3.00
2017-07-16T22:39:44.349Z,3.23
2017-07-16T22:42:11.844Z,2.80
2017-07-16T22:44:39.347Z,3.27
2017-07-16T22:47:06.797Z,3.70
2017-07-16T22:49:34.341Z,4.10
2017-07-16T22:52:01.834Z,3.80
2017-07-16T22:54:29.305Z,4.07
2017-07-16T22:56:57.210Z,3.93
2017-07-16T22:59:24.671Z,3.70
2017-07-16T23:01:52.180Z,3.57
2017-07-16T23:04:19.653Z,3.97
2017-07-16T23:06:47.201Z,3.73
2017-07-16T23:09:14.655Z,3.70
2017-07-16T23:11:42.259Z,3.80
2017-07-16T23:14:09.780Z,3.40
2017-07-16T23:16:37.296Z,4.40
2017-07-16T23:19:04.751Z,3.60
2017-07-16T23:21:32.224Z,3.70
2017-07-16T23:23:59.658Z,3.70
2017-07-16T23:26:27.103Z,3.57
2017-07-16T23:28:54.667Z,3.90
2017-07-16T23:31:22.208Z,3.40
2017-07-16T23:33:49.728Z,3.37
2017-07-16T23:36:17.207Z,4.20
2017-07-16T23:38:44.719Z,5.50
2017-07-16T23:41:12.163Z,4.33
2017-07-16T23:43:39.647Z,3.53
2017-07-16T23:46:07.147Z,3.73
2017-07-16T23:48:34.669Z,3.57
2017-07-16T23:51:02.145Z,3.17
2017-07-16T23:53:29.632Z,3.40
2017-07-16T23:55:57.136Z,3.60
2017-07-16T23:58:24.635Z,3.50
